Time;durP1;ratioP1;P1;durP2;ratioP2;P2;SDS_P1;SDS_P2;PMS_P1;PMS_P2;Temp;Humidity;BMP_temperature;BMP_pressure;BME280_temperature;BME280_humidity;BME280_pressure;Samples;Min_cycle;Max_cycle;Signal;HPM_P1;HPM_P2
2022/03/20 00:00:56;;;;;;;;;;;;;;;7.82;21.87;101396.81;4454007;32;32940;-80
2022/03/20 00:03:24;;;;;;;;;;;;;;;7.79;22.13;101405.25;4444849;32;34221;-79
2022/03/20 00:05:52;;;;;;;;;;;;;;;7.52;22.21;101394.16;4444201;32;34183;-80
2022/03/20 00:08:20;;;;;;;;;;;;;;;7.22;22.69;101398.34;4470346;32;34228;-80
2022/03/20 00:10:48;;;;;;;;;;;;;;;7.61;22.04;101398.97;4467095;32;33396;-79
2022/03/20 00:13:17;;;;;;;;;;;;;;;7.47;22.47;101398.19;4466708;32;34017;-80
2022/03/20 00:15:45;;;;;;;;;;;;;;;7.29;22.62;101401.41;4466288;32;34279;-80
2022/03/20 00:18:14;;;;;;;;;;;;;;;7.09;22.97;101407.03;4460430;32;33831;-80
2022/03/20 00:20:42;;;;;;;;;;;;;;;7.29;22.86;101396.22;4452118;32;34471;-81
2022/03/20 00:23:10;;;;;;;;;;;;;;;7.01;23.21;101410.81;4431953;32;34159;-81
2022/03/20 00:25:44;;;;;;;;;;;;;;;7.02;23.32;101399.69;4452392;32;34138;-79
2022/03/20 00:28:12;;;;;;;;;;;;;;;7.26;23.07;101384.84;4464741;32;33740;-79
2022/03/20 00:30:39;;;;;;;;;;;;;;;7.34;23.24;101387.88;4453252;32;33613;-78
2022/03/20 00:33:06;;;;;;;;;;;;;;;8.05;22.35;101388.72;4438672;32;35125;-81
2022/03/20 00:35:33;;;;;;;;;;;;;;;7.90;22.36;101383.53;4449402;32;35267;-81
2022/03/20 00:38:04;;;;;;;;;;;;;;;8.15;22.65;101391.03;4448677;32;34508;-81
2022/03/20 00:40:31;;;;;;;;;;;;;;;8.27;22.24;101396.03;4440596;32;32432;-80
2022/03/20 00:42:59;;;;;;;;;;;;;;;8.31;22.24;101394.50;4447781;32;34707;-81
2022/03/20 00:45:28;;;;;;;;;;;;;;;7.43;23.07;101385.87;4442637;32;34295;-81
2022/03/20 00:47:55;;;;;;;;;;;;;;;8.09;22.31;101380.34;4475996;32;34814;-82
2022/03/20 00:50:22;;;;;;;;;;;;;;;7.40;23.32;101380.53;4443543;32;33980;-81
2022/03/20 00:52:50;;;;;;;;;;;;;;;8.20;22.59;101387.03;4449376;32;32705;-80
2022/03/20 00:55:17;;;;;;;;;;;;;;;7.36;23.37;101391.47;4467323;32;35277;-82
2022/03/20 00:57:45;;;;;;;;;;;;;;;7.43;23.57;101393.63;4482878;32;35076;-82
2022/03/20 01:00:13;;;;;;;;;;;;;;;7.16;23.80;101400.53;4465311;32;33101;-81
2022/03/20 01:02:40;;;;;;;;;;;;;;;6.96;24.06;101391.56;4482809;32;33583;-82
2022/03/20 01:05:08;;;;;;;;;;;;;;;6.77;24.54;101392.97;4455937;32;33945;-82
2022/03/20 01:07:37;;;;;;;;;;;;;;;5.99;25.26;101387.03;4438576;32;34328;-82
2022/03/20 01:10:04;;;;;;;;;;;;;;;5.92;25.51;101387.38;4463086;32;33648;-79
2022/03/20 01:12:33;;;;;;;;;;;;;;;6.49;25.06;101374.88;4453829;32;34573;-81
2022/03/20 01:15:02;;;;;;;;;;;;;;;6.07;25.43;101373.84;4441255;32;35424;-81
2022/03/20 01:17:30;;;;;;;;;;;;;;;6.10;25.67;101383.47;4440575;32;33325;-81
2022/03/20 01:19:57;;;;;;;;;;;;;;;5.76;26.29;101391.50;4453274;32;33257;-81
2022/03/20 01:22:24;;;;;;;;;;;;;;;5.52;26.53;101392.38;4451817;32;35017;-81
2022/03/20 01:24:51;;;;;;;;;;;;;;;6.16;26.01;101389.00;4468498;32;35359;-81
2022/03/20 01:27:18;;;;;;;;;;;;;;;5.60;26.42;101393.78;4462300;32;34142;-80
2022/03/20 01:29:46;;;;;;;;;;;;;;;5.29;26.85;101391.69;4450037;32;32846;-81
2022/03/20 01:32:13;;;;;;;;;;;;;;;5.55;26.70;101390.03;4463505;32;34914;-81
2022/03/20 01:34:40;;;;;;;;;;;;;;;6.05;26.13;101395.12;4463658;32;34269;-80
2022/03/20 01:37:08;;;;;;;;;;;;;;;5.92;26.26;101400.25;4468397;32;34363;-80
2022/03/20 01:39:35;;;;;;;;;;;;;;;6.31;25.72;101410.63;4451701;32;33800;-81
2022/03/20 01:42:03;;;;;;;;;;;;;;;5.70;26.75;101416.78;4454355;32;32295;-80
2022/03/20 01:44:31;;;;;;;;;;;;;;;6.22;25.96;101410.03;4447612;32;34397;-82
2022/03/20 01:46:59;;;;;;;;;;;;;;;5.94;26.55;101408.97;4461346;32;34293;-79
2022/03/20 01:49:26;;;;;;;;;;;;;;;5.20;27.34;101416.78;4464485;32;33142;-82
2022/03/20 01:52:23;;;;;;;;;;;;;;;5.07;27.65;101424.38;4454676;32;34984;-82
2022/03/20 01:54:53;;;;;;;;;;;;;;;5.64;27.00;101421.50;4442684;32;33795;-82
2022/03/20 01:57:23;;;;;;;;;;;;;;;5.52;26.86;101424.13;4440426;32;35211;-82
2022/03/20 01:59:50;;;;;;;;;;;;;;;5.84;26.88;101431.50;4457381;32;33260;-81
2022/03/20 02:02:18;;;;;;;;;;;;;;;5.53;27.17;101430.16;4453302;32;34299;-83
2022/03/20 02:04:46;;;;;;;;;;;;;;;5.32;27.78;101437.31;4465015;32;34212;-81
2022/03/20 02:07:13;;;;;;;;;;;;;;;5.84;26.88;101431.50;4452936;32;33910;-81
2022/03/20 02:09:41;;;;;;;;;;;;;;;5.52;27.21;101430.97;4441467;32;34268;-82
2022/03/20 02:12:09;;;;;;;;;;;;;;;5.25;27.77;101435.97;4453138;32;34241;-82
2022/03/20 02:14:39;;;;;;;;;;;;;;;5.42;27.86;101449.12;4456961;32;34526;-82
2022/03/20 02:17:07;;;;;;;;;;;;;;;4.52;29.07;101436.75;4449390;32;34169;-81
2022/03/20 02:19:35;;;;;;;;;;;;;;;4.68;29.11;101443.00;4450698;32;33307;-80
2022/03/20 02:22:03;;;;;;;;;;;;;;;4.62;29.17;101440.84;4454330;32;34184;-83
2022/03/20 02:24:33;;;;;;;;;;;;;;;4.91;28.83;101442.09;4453996;32;34104;-82
2022/03/20 02:27:17;;;;;;;;;;;;;;;5.17;28.66;101443.94;4443917;32;34026;-82
2022/03/20 02:29:46;;;;;;;;;;;;;;;4.36;29.78;101437.31;4464334;32;33278;-82
2022/03/20 02:32:14;;;;;;;;;;;;;;;4.51;29.48;101434.97;4468323;32;34223;-81
2022/03/20 02:34:45;;;;;;;;;;;;;;;4.57;29.41;101442.22;4440409;32;33988;-83
2022/03/20 02:37:12;;;;;;;;;;;;;;;4.81;29.17;101441.44;4457291;32;32622;-83
2022/03/20 02:39:40;;;;;;;;;;;;;;;4.69;29.12;101444.78;4444961;32;33201;-82
2022/03/20 02:42:08;;;;;;;;;;;;;;;4.22;30.04;101440.50;4439453;32;33919;-82
2022/03/20 02:44:54;;;;;;;;;;;;;;;4.65;29.44;101448.78;4431440;32;34433;-81
2022/03/20 02:47:25;;;;;;;;;;;;;;;4.72;29.49;101445.00;4466839;32;35053;-82
2022/03/20 02:49:55;;;;;;;;;;;;;;;4.72;29.53;101447.56;4454348;32;33206;-80
2022/03/20 02:52:28;;;;;;;;;;;;;;;5.00;29.11;101446.22;4438443;32;34284;-80
2022/03/20 02:54:58;;;;;;;;;;;;;;;5.12;29.06;101449.66;4451256;32;34572;-81
2022/03/20 02:57:25;;;;;;;;;;;;;;;4.59;29.68;101453.50;4426022;32;33942;-81
2022/03/20 02:59:52;;;;;;;;;;;;;;;5.57;28.64;101455.34;4464908;32;33894;-82
2022/03/20 03:02:19;;;;;;;;;;;;;;;5.81;28.21;101458.72;4459321;32;34254;-82
2022/03/20 03:04:47;;;;;;;;;;;;;;;5.91;27.79;101457.63;4447520;32;35097;-81
2022/03/20 03:07:14;;;;;;;;;;;;;;;6.08;27.68;101460.59;4453608;32;33898;-80
2022/03/20 03:12:27;;;;;;;;;;;;;;;6.51;27.28;101466.03;4464746;32;34178;-81
2022/03/20 03:17:40;;;;;;;;;;;;;;;5.19;28.71;101480.94;4452268;32;35016;-80
2022/03/20 03:20:08;;;;;;;;;;;;;;;4.87;29.39;101485.56;4466409;32;33453;-81
2022/03/20 03:22:44;;;;;;;;;;;;;;;5.64;28.60;101482.38;4467663;32;34558;-81
2022/03/20 03:25:12;;;;;;;;;;;;;;;5.42;28.83;101491.19;4464962;32;34195;-82
2022/03/20 03:27:39;;;;;;;;;;;;;;;5.66;28.71;101491.13;4452631;32;33964;-81
2022/03/20 03:30:06;;;;;;;;;;;;;;;6.42;27.67;101485.16;4461635;32;34074;-80
2022/03/20 03:32:33;;;;;;;;;;;;;;;6.91;27.10;101485.81;4458083;32;34142;-81
2022/03/20 03:37:47;;;;;;;;;;;;;;;7.17;26.71;101501.25;4440719;32;34926;-82
2022/03/20 03:40:14;;;;;;;;;;;;;;;6.38;27.74;101503.78;4461696;32;34176;-83
2022/03/20 03:42:42;;;;;;;;;;;;;;;7.11;26.79;101508.59;4457692;32;35058;-82
2022/03/20 03:45:09;;;;;;;;;;;;;;;7.42;26.62;101506.25;4466352;32;33809;-82
2022/03/20 03:47:36;;;;;;;;;;;;;;;7.45;26.50;101505.56;4457465;32;34156;-82
2022/03/20 03:50:04;;;;;;;;;;;;;;;6.49;27.44;101508.88;4460592;32;33259;-82
2022/03/20 03:52:31;;;;;;;;;;;;;;;8.13;26.05;101515.75;4467421;32;34217;-82
2022/03/20 03:54:58;;;;;;;;;;;;;;;7.61;26.03;101526.38;4465115;32;34372;-81
2022/03/20 03:57:28;;;;;;;;;;;;;;;7.83;26.32;101519.97;4464719;32;33705;-81
2022/03/20 03:59:55;;;;;;;;;;;;;;;7.36;26.78;101525.66;4461981;32;33931;-81
2022/03/20 04:02:22;;;;;;;;;;;;;;;8.67;25.29;101518.16;4457251;32;34616;-82
2022/03/20 04:04:50;;;;;;;;;;;;;;;8.62;25.26;101518.69;4464526;32;34305;-82
2022/03/20 04:07:18;;;;;;;;;;;;;;;9.25;24.68;101529.25;4465848;32;34001;-82
2022/03/20 04:09:45;;;;;;;;;;;;;;;8.90;24.96;101526.34;4462165;32;32912;-81
2022/03/20 04:12:13;;;;;;;;;;;;;;;8.25;25.63;101522.53;4459977;32;34369;-80
2022/03/20 04:14:41;;;;;;;;;;;;;;;8.57;25.67;101526.19;4458297;32;35098;-81
2022/03/20 04:17:11;;;;;;;;;;;;;;;8.97;25.21;101531.06;4428360;32;34820;-82
2022/03/20 04:19:40;;;;;;;;;;;;;;;9.14;25.03;101538.09;4438247;32;33399;-82
2022/03/20 04:22:07;;;;;;;;;;;;;;;9.25;24.85;101544.78;4437690;32;35047;-81
2022/03/20 04:24:36;;;;;;;;;;;;;;;9.61;24.06;101538.94;4442673;32;34420;-80
2022/03/20 04:27:05;;;;;;;;;;;;;;;9.02;25.10;101537.41;4455612;32;34143;-84
2022/03/20 04:29:32;;;;;;;;;;;;;;;8.99;24.98;101545.00;4452609;32;34479;-82
2022/03/20 04:31:59;;;;;;;;;;;;;;;9.33;24.98;101544.31;4443064;32;33773;-81
2022/03/20 04:34:27;;;;;;;;;;;;;;;9.56;24.64;101554.25;4452269;32;35440;-81
2022/03/20 04:36:56;;;;;;;;;;;;;;;9.11;24.99;101553.44;4462520;32;33965;-81
2022/03/20 04:39:23;;;;;;;;;;;;;;;9.09;25.23;101570.59;4467401;32;33526;-82
2022/03/20 04:41:51;;;;;;;;;;;;;;;8.12;26.26;101556.22;4450701;32;34990;-81
2022/03/20 04:44:18;;;;;;;;;;;;;;;6.80;28.53;101572.75;4461384;32;35054;-81
2022/03/20 04:46:46;;;;;;;;;;;;;;;7.96;27.28;101571.59;4471852;32;33748;-82
2022/03/20 05:00:18;;;;;;;;;;;;;;;8.34;26.36;101579.09;4443191;32;34192;-82
2022/03/20 05:02:45;;;;;;;;;;;;;;;7.43;27.77;101597.50;4449972;32;34910;-82
2022/03/20 05:05:13;;;;;;;;;;;;;;;8.44;26.73;101594.34;4464870;32;35124;-82
2022/03/20 05:07:40;;;;;;;;;;;;;;;8.90;26.35;101591.00;4451767;32;33807;-82
2022/03/20 05:15:40;;;;;;;;;;;;;;;9.40;25.29;101595.63;4479351;32;33942;-81
2022/03/20 05:18:07;;;;;;;;;;;;;;;9.65;25.60;101596.16;4468395;32;34356;-82
2022/03/20 05:20:36;;;;;;;;;;;;;;;9.27;25.59;101594.91;4456909;32;33595;-81
2022/03/20 05:23:03;;;;;;;;;;;;;;;9.85;25.46;101599.87;4442147;32;34073;-82
2022/03/20 05:25:30;;;;;;;;;;;;;;;9.87;25.30;101608.59;4462185;32;35409;-81
2022/03/20 05:27:57;;;;;;;;;;;;;;;10.16;24.52;101615.38;4465624;32;34199;-81
2022/03/20 05:30:25;;;;;;;;;;;;;;;8.75;26.06;101616.87;4451202;32;33521;-81
2022/03/20 05:32:52;;;;;;;;;;;;;;;8.39;26.47;101624.22;4458972;32;34210;-80
2022/03/20 05:35:19;;;;;;;;;;;;;;;9.20;26.30;101628.12;4438557;32;34030;-80
2022/03/20 05:37:47;;;;;;;;;;;;;;;7.67;27.61;101627.44;4424549;32;33753;-82
2022/03/20 05:40:15;;;;;;;;;;;;;;;7.74;27.64;101624.47;4451410;32;33164;-82
2022/03/20 05:42:43;;;;;;;;;;;;;;;9.26;26.12;101619.03;4453347;32;34970;-81
2022/03/20 05:45:10;;;;;;;;;;;;;;;8.85;26.50;101628.66;4453415;32;35329;-82
2022/03/20 05:47:39;;;;;;;;;;;;;;;8.29;26.91;101635.62;4449576;32;34619;-82
2022/03/20 05:50:07;;;;;;;;;;;;;;;7.90;27.39;101630.59;4461931;32;33327;-81
2022/03/20 05:52:35;;;;;;;;;;;;;;;8.26;28.14;101632.91;4437972;32;34757;-81
2022/03/20 05:55:03;;;;;;;;;;;;;;;8.32;26.84;101640.13;4455048;32;34314;-81
2022/03/20 06:00:23;;;;;;;;;;;;;;;7.08;28.77;101642.50;4439054;32;34000;-81
2022/03/20 06:02:51;;;;;;;;;;;;;;;7.86;28.02;101645.00;4462145;32;35075;-81
2022/03/20 06:05:18;;;;;;;;;;;;;;;7.99;27.59;101637.25;4439151;32;34307;-81
2022/03/20 06:07:52;;;;;;;;;;;;;;;8.92;26.95;101638.56;4447384;32;33427;-81
2022/03/20 06:10:20;;;;;;;;;;;;;;;8.48;27.92;101644.56;4451569;32;33930;-83
2022/03/20 06:12:47;;;;;;;;;;;;;;;7.47;28.45;101658.84;4452443;32;35067;-81
2022/03/20 06:15:17;;;;;;;;;;;;;;;7.29;29.10;101667.16;4454096;32;35000;-83
2022/03/20 06:17:45;;;;;;;;;;;;;;;6.56;29.59;101670.84;4454543;32;34829;-83
2022/03/20 06:20:13;;;;;;;;;;;;;;;6.22;29.82;101677.91;4456226;32;34045;-83
2022/03/20 06:22:41;;;;;;;;;;;;;;;6.46;30.18;101683.00;4459644;32;34972;-82
2022/03/20 06:25:09;;;;;;;;;;;;;;;5.24;31.38;101688.81;4453534;32;34340;-83
2022/03/20 06:27:49;;;;;;;;;;;;;;;6.16;30.59;101695.50;4457484;32;34093;-81
2022/03/20 06:30:17;;;;;;;;;;;;;;;7.13;29.07;101690.16;4438631;32;32492;-82
2022/03/20 06:32:45;;;;;;;;;;;;;;;6.72;29.02;101692.53;4450802;32;34818;-82
2022/03/20 06:35:14;;;;;;;;;;;;;;;6.06;30.19;101693.06;4468104;32;34353;-81
2022/03/20 06:37:43;;;;;;;;;;;;;;;6.43;29.59;101688.81;4453962;32;33191;-85
2022/03/20 06:40:11;;;;;;;;;;;;;;;5.58;30.87;101701.59;4454282;32;33454;-83
2022/03/20 06:42:38;;;;;;;;;;;;;;;5.48;30.90;101709.41;4449607;32;35030;-83
2022/03/20 06:45:11;;;;;;;;;;;;;;;5.21;31.87;101708.25;4453027;32;32907;-82
2022/03/20 06:47:39;;;;;;;;;;;;;;;6.34;29.95;101717.41;4442231;32;33839;-82
2022/03/20 06:50:07;;;;;;;;;;;;;;;5.59;31.55;101716.22;4441239;32;32401;-82
2022/03/20 06:52:35;;;;;;;;;;;;;;;6.92;29.58;101717.09;4437865;32;32904;-80
2022/03/20 06:55:03;;;;;;;;;;;;;;;6.66;29.71;101713.59;4461720;32;34499;-82
2022/03/20 06:57:30;;;;;;;;;;;;;;;7.43;28.18;101711.06;4453560;32;34477;-81
2022/03/20 06:59:59;;;;;;;;;;;;;;;6.80;29.33;101722.28;4453596;32;32989;-82
2022/03/20 07:02:27;;;;;;;;;;;;;;;7.88;28.07;101713.16;4454506;32;33985;-83
2022/03/20 07:04:55;;;;;;;;;;;;;;;6.41;29.97;101728.16;4427923;32;32958;-82
2022/03/20 07:07:23;;;;;;;;;;;;;;;6.86;29.68;101724.38;4452595;32;35170;-82
2022/03/20 07:09:50;;;;;;;;;;;;;;;6.78;29.63;101729.00;4449158;32;33070;-81
2022/03/20 07:12:20;;;;;;;;;;;;;;;7.32;29.16;101731.87;4453364;32;34548;-80
2022/03/20 07:14:47;;;;;;;;;;;;;;;8.46;27.45;101729.78;4446259;32;32162;-82
2022/03/20 07:17:16;;;;;;;;;;;;;;;8.84;27.01;101733.84;4440970;32;33841;-84
2022/03/20 07:19:43;;;;;;;;;;;;;;;8.41;27.09;101736.38;4444934;32;32354;-82
2022/03/20 07:22:12;;;;;;;;;;;;;;;7.65;28.24;101746.91;4456241;32;33395;-82
2022/03/20 07:24:41;;;;;;;;;;;;;;;8.14;27.56;101740.62;4452817;32;34215;-82
2022/03/20 07:29:54;;;;;;;;;;;;;;;8.30;27.83;101747.69;4445700;32;33067;-82
2022/03/20 07:32:21;;;;;;;;;;;;;;;8.32;27.48;101753.84;4438202;32;34003;-81
2022/03/20 07:34:49;;;;;;;;;;;;;;;7.10;28.68;101762.19;4441553;32;33962;-81
2022/03/20 07:37:16;;;;;;;;;;;;;;;7.94;28.22;101754.88;4459477;32;33687;-82
2022/03/20 07:39:44;;;;;;;;;;;;;;;8.70;27.21;101745.91;4446400;32;34134;-81
2022/03/20 07:42:12;;;;;;;;;;;;;;;8.92;27.00;101755.00;4452220;32;34319;-81
2022/03/20 07:44:40;;;;;;;;;;;;;;;9.02;26.20;101741.81;4452769;32;34093;-81
2022/03/20 07:47:08;;;;;;;;;;;;;;;7.79;28.21;101747.00;4458638;32;34204;-81
2022/03/20 07:49:38;;;;;;;;;;;;;;;7.69;28.32;101752.41;4447659;32;32981;-81
2022/03/20 07:52:06;;;;;;;;;;;;;;;8.34;27.61;101743.62;4441174;32;34911;-80
2022/03/20 07:54:36;;;;;;;;;;;;;;;8.80;26.93;101738.72;4445522;32;33955;-80
2022/03/20 07:57:04;;;;;;;;;;;;;;;7.61;28.04;101748.37;4460983;32;35033;-82
2022/03/20 07:59:31;;;;;;;;;;;;;;;7.97;27.60;101749.91;4457674;32;33357;-82
2022/03/20 08:01:58;;;;;;;;;;;;;;;7.84;27.67;101746.41;4453228;32;33997;-81
2022/03/20 08:04:26;;;;;;;;;;;;;;;7.38;28.27;101749.44;4455037;32;33644;-81
2022/03/20 08:06:54;;;;;;;;;;;;;;;8.72;27.04;101741.75;4464558;32;34514;-80
2022/03/20 08:09:21;;;;;;;;;;;;;;;9.34;26.04;101748.00;4467006;32;33076;-81
2022/03/20 08:11:49;;;;;;;;;;;;;;;9.65;25.59;101741.22;4440058;32;33002;-81
2022/03/20 08:14:17;;;;;;;;;;;;;;;10.50;24.99;101749.47;4454072;32;34502;-82
2022/03/20 08:16:45;;;;;;;;;;;;;;;9.99;24.81;101749.22;4462057;32;34965;-82
2022/03/20 08:19:15;;;;;;;;;;;;;;;8.96;26.15;101749.22;4442849;32;33137;-80
2022/03/20 08:21:43;;;;;;;;;;;;;;;9.60;26.24;101752.13;4461923;32;33174;-80
2022/03/20 08:24:12;;;;;;;;;;;;;;;10.16;25.00;101737.22;4444753;32;33974;-81
2022/03/20 08:26:40;;;;;;;;;;;;;;;10.68;24.26;101749.53;4436821;32;33836;-83
2022/03/20 08:29:12;;;;;;;;;;;;;;;10.60;24.98;101736.16;4437238;32;33234;-82
2022/03/20 08:31:44;;;;;;;;;;;;;;;11.28;23.44;101739.69;4447288;32;34960;-82
2022/03/20 08:34:12;;;;;;;;;;;;;;;11.06;23.80;101733.44;4449078;32;34130;-82
2022/03/20 08:36:41;;;;;;;;;;;;;;;11.41;22.48;101730.03;4456840;32;34346;-82
2022/03/20 08:39:08;;;;;;;;;;;;;;;9.89;23.96;101728.78;4437945;32;32963;-82
2022/03/20 08:41:35;;;;;;;;;;;;;;;10.05;23.71;101733.12;4439729;32;33751;-81
2022/03/20 08:44:03;;;;;;;;;;;;;;;8.62;25.65;101749.72;4456805;32;33856;-82
2022/03/20 08:46:30;;;;;;;;;;;;;;;9.32;25.15;101734.06;4456771;32;34274;-82
2022/03/20 08:48:58;;;;;;;;;;;;;;;9.04;25.24;101736.72;4450628;32;34115;-84
2022/03/20 08:51:25;;;;;;;;;;;;;;;8.79;25.06;101740.44;4459629;32;34085;-81
2022/03/20 08:53:52;;;;;;;;;;;;;;;8.93;25.18;101744.72;4467328;32;34511;-82
2022/03/20 08:56:20;;;;;;;;;;;;;;;9.45;24.57;101739.19;4453491;32;34595;-82
2022/03/20 08:58:48;;;;;;;;;;;;;;;9.52;24.50;101737.84;4464747;32;32898;-82
2022/03/20 09:01:21;;;;;;;;;;;;;;;10.46;23.62;101731.97;4457097;32;34684;-84
2022/03/20 09:03:50;;;;;;;;;;;;;;;10.13;23.61;101741.31;4451116;32;34041;-84
2022/03/20 09:06:18;;;;;;;;;;;;;;;9.23;24.58;101735.31;4462746;32;34353;-80
2022/03/20 09:08:46;;;;;;;;;;;;;;;10.07;23.82;101740.97;4473154;32;33997;-81
2022/03/20 09:11:13;;;;;;;;;;;;;;;11.37;22.33;101737.59;4451421;32;33566;-79
2022/03/20 09:13:40;;;;;;;;;;;;;;;10.44;23.28;101743.94;4466699;32;34588;-83
2022/03/20 09:19:00;;;;;;;;;;;;;;;10.50;23.62;101731.31;4466962;32;34038;-79
2022/03/20 09:21:28;;;;;;;;;;;;;;;9.91;23.75;101724.56;4467253;32;35049;-79
2022/03/20 09:23:55;;;;;;;;;;;;;;;11.05;22.51;101725.53;4449801;32;34171;-82
2022/03/20 09:26:22;;;;;;;;;;;;;;;11.19;22.65;101720.25;4445577;32;33440;-80
2022/03/20 09:28:50;;;;;;;;;;;;;;;11.44;22.22;101711.09;4449070;32;33623;-81
2022/03/20 09:31:19;;;;;;;;;;;;;;;11.82;22.26;101714.66;4453122;32;34767;-82
2022/03/20 09:33:46;;;;;;;;;;;;;;;11.17;22.06;101715.78;4460965;32;35164;-83
2022/03/20 09:36:13;;;;;;;;;;;;;;;11.85;21.69;101696.66;4476721;32;34130;-83
2022/03/20 09:38:41;;;;;;;;;;;;;;;11.51;21.73;101710.56;4473736;32;34144;-84
2022/03/20 09:41:11;;;;;;;;;;;;;;;11.67;21.39;101699.25;4472170;32;34487;-84
2022/03/20 09:43:40;;;;;;;;;;;;;;;12.53;20.72;101709.38;4463785;32;35323;-81
2022/03/20 09:46:13;;;;;;;;;;;;;;;10.47;22.14;101716.47;4451133;32;34279;-83
2022/03/20 09:48:41;;;;;;;;;;;;;;;10.82;22.04;101719.16;4438873;32;34262;-84
2022/03/20 09:51:10;;;;;;;;;;;;;;;9.41;23.19;101716.50;4459172;32;34814;-83
2022/03/20 09:53:37;;;;;;;;;;;;;;;9.72;23.34;101714.84;4468461;32;34264;-82
2022/03/20 09:56:07;;;;;;;;;;;;;;;9.92;23.26;101717.69;4468046;32;35098;-80
2022/03/20 09:58:34;;;;;;;;;;;;;;;10.20;22.68;101713.25;4449030;32;32992;-83
2022/03/20 10:01:02;;;;;;;;;;;;;;;11.72;21.47;101708.16;4473384;32;34965;-82
2022/03/20 10:03:30;;;;;;;;;;;;;;;11.83;21.54;101700.88;4456906;32;34243;-82
2022/03/20 10:06:04;;;;;;;;;;;;;;;12.35;20.63;101700.75;4454042;32;34254;-81
2022/03/20 10:08:32;;;;;;;;;;;;;;;11.87;21.15;101697.63;4464389;32;34064;-83
2022/03/20 10:11:12;;;;;;;;;;;;;;;11.76;21.12;101693.59;4454774;32;34849;-80
2022/03/20 10:13:40;;;;;;;;;;;;;;;12.28;21.18;101691.78;4458393;32;35304;-86
2022/03/20 10:16:17;;;;;;;;;;;;;;;11.64;21.42;101689.59;4445286;32;35179;-86
2022/03/20 10:18:45;;;;;;;;;;;;;;;11.09;21.95;101686.81;4452900;32;33067;-81
2022/03/20 10:21:12;;;;;;;;;;;;;;;10.85;22.40;101690.78;4452870;32;34129;-87
2022/03/20 10:23:41;;;;;;;;;;;;;;;10.52;22.54;101703.75;4453297;32;34046;-80
2022/03/20 10:26:10;;;;;;;;;;;;;;;9.79;23.72;101699.69;4440422;32;33698;-86
2022/03/20 10:28:41;;;;;;;;;;;;;;;10.09;23.08;101697.91;4462631;32;32322;-87
2022/03/20 10:31:12;;;;;;;;;;;;;;;10.41;23.21;101703.16;4447369;32;34345;-80
2022/03/20 10:33:41;;;;;;;;;;;;;;;10.71;22.92;101703.91;4454002;32;34408;-80
2022/03/20 10:36:12;;;;;;;;;;;;;;;11.04;22.38;101687.41;4454006;32;32420;-80
2022/03/20 10:38:41;;;;;;;;;;;;;;;11.71;21.48;101676.91;4454132;32;33852;-80
2022/03/20 10:41:17;;;;;;;;;;;;;;;11.90;21.77;101679.59;4468412;32;35140;-81
2022/03/20 10:43:45;;;;;;;;;;;;;;;12.16;21.27;101675.62;4454113;32;35251;-85
2022/03/20 10:46:25;;;;;;;;;;;;;;;12.87;20.85;101675.34;4467701;32;34265;-81
2022/03/20 10:48:53;;;;;;;;;;;;;;;12.71;20.90;101672.00;4465623;32;33134;-81
2022/03/20 10:51:40;;;;;;;;;;;;;;;11.37;21.92;101670.06;4476879;32;34013;-81
2022/03/20 10:54:11;;;;;;;;;;;;;;;10.51;22.72;101676.03;4454690;32;32640;-80
2022/03/20 10:56:52;;;;;;;;;;;;;;;10.86;22.42;101666.59;4458616;32;34020;-80
2022/03/20 10:59:20;;;;;;;;;;;;;;;11.93;21.43;101665.03;4460809;32;33497;-79
2022/03/20 11:01:47;;;;;;;;;;;;;;;12.04;21.53;101665.50;4451759;32;34226;-81
2022/03/20 11:04:15;;;;;;;;;;;;;;;11.72;21.40;101657.88;4454167;32;34011;-82
2022/03/20 11:06:44;;;;;;;;;;;;;;;11.38;21.71;101659.72;4450163;32;34124;-83
2022/03/20 11:09:11;;;;;;;;;;;;;;;12.20;20.81;101651.53;4472910;32;33605;-82
2022/03/20 11:11:44;;;;;;;;;;;;;;;11.85;21.31;101657.66;4460887;32;34020;-78
2022/03/20 11:14:15;;;;;;;;;;;;;;;11.64;20.85;101657.53;4452800;32;35324;-80
2022/03/20 11:16:42;;;;;;;;;;;;;;;12.16;20.90;101660.91;4452294;32;34960;-81
2022/03/20 11:19:10;;;;;;;;;;;;;;;11.44;20.79;101654.84;4446370;32;33939;-80
2022/03/20 11:21:39;;;;;;;;;;;;;;;11.46;21.10;101654.91;4446732;32;35190;-80
2022/03/20 11:24:06;;;;;;;;;;;;;;;11.78;20.68;101645.16;4460074;32;34217;-82
2022/03/20 11:26:33;;;;;;;;;;;;;;;12.05;20.64;101651.72;4455841;32;33172;-83
2022/03/20 11:29:01;;;;;;;;;;;;;;;11.20;20.66;101638.94;4447022;32;34121;-82
2022/03/20 11:31:32;;;;;;;;;;;;;;;11.27;21.36;101629.75;4454541;32;33814;-82
2022/03/20 11:33:59;;;;;;;;;;;;;;;11.72;20.97;101631.91;4455279;32;34340;-82
2022/03/20 11:36:27;;;;;;;;;;;;;;;11.78;20.20;101625.28;4452465;32;34895;-82
2022/03/20 11:39:10;;;;;;;;;;;;;;;11.88;20.32;101616.22;4450530;32;34138;-81
2022/03/20 11:41:38;;;;;;;;;;;;;;;12.39;19.58;101603.84;4450932;32;34262;-81
2022/03/20 11:44:14;;;;;;;;;;;;;;;11.95;19.99;101613.09;4466501;32;34902;-81
2022/03/20 11:46:44;;;;;;;;;;;;;;;12.16;19.61;101611.50;4451571;32;33293;-85
2022/03/20 11:49:19;;;;;;;;;;;;;;;11.38;20.63;101606.91;4460068;32;33010;-81
2022/03/20 11:51:50;;;;;;;;;;;;;;;12.08;20.06;101599.84;4447286;32;33527;-84
2022/03/20 11:54:18;;;;;;;;;;;;;;;13.24;18.95;101596.19;4449811;32;34515;-81
2022/03/20 11:56:48;;;;;;;;;;;;;;;12.98;19.32;101595.09;4448188;32;33195;-85
2022/03/20 11:59:34;;;;;;;;;;;;;;;12.11;19.64;101589.56;4449918;32;33522;-82
2022/03/20 12:02:01;;;;;;;;;;;;;;;12.22;19.78;101589.19;4448137;32;33887;-80
2022/03/20 12:04:33;;;;;;;;;;;;;;;12.66;19.70;101583.31;4446580;32;35397;-79
2022/03/20 12:07:09;;;;;;;;;;;;;;;13.13;20.69;101567.06;4446823;32;33748;-81
2022/03/20 12:09:36;;;;;;;;;;;;;;;12.23;19.25;101577.94;4464079;32;33951;-82
2022/03/20 12:12:07;;;;;;;;;;;;;;;12.64;18.96;101575.44;4465178;32;34307;-80
2022/03/20 12:14:38;;;;;;;;;;;;;;;11.60;19.99;101586.31;4458262;32;33902;-80
2022/03/20 12:17:07;;;;;;;;;;;;;;;11.08;20.35;101581.22;4452639;32;33965;-80
2022/03/20 12:19:44;;;;;;;;;;;;;;;11.83;20.13;101570.94;4463863;32;33290;-81
2022/03/20 12:22:21;;;;;;;;;;;;;;;12.45;19.82;101572.87;4464622;32;32949;-84
2022/03/20 12:25:00;;;;;;;;;;;;;;;12.27;19.54;101565.13;4464980;32;34120;-80
2022/03/20 12:27:29;;;;;;;;;;;;;;;12.39;19.12;101577.81;4449585;32;34163;-80
2022/03/20 12:30:03;;;;;;;;;;;;;;;11.81;20.06;101577.75;4449084;32;33271;-84
2022/03/20 12:32:49;;;;;;;;;;;;;;;11.99;19.20;101565.63;4452669;32;34562;-84
2022/03/20 12:35:16;;;;;;;;;;;;;;;13.36;18.21;101559.31;4453297;32;34203;-80
2022/03/20 12:37:44;;;;;;;;;;;;;;;12.48;18.89;101554.78;4448572;32;34314;-83
2022/03/20 12:40:14;;;;;;;;;;;;;;;11.71;19.36;101559.97;4452021;32;32998;-83
2022/03/20 12:43:08;;;;;;;;;;;;;;;11.82;20.44;101563.91;4451818;32;34033;-86
2022/03/20 12:45:37;;;;;;;;;;;;;;;11.72;19.33;101557.44;4440192;32;33119;-79
2022/03/20 12:48:05;;;;;;;;;;;;;;;11.30;20.04;101556.31;4449858;32;34290;-79
2022/03/20 12:50:34;;;;;;;;;;;;;;;11.85;19.83;101556.31;4470222;32;33096;-87
2022/03/20 12:53:27;;;;;;;;;;;;;;;12.28;19.65;101550.44;4440711;32;35028;-85
2022/03/20 12:55:56;;;;;;;;;;;;;;;11.97;19.18;101548.16;4450557;32;34957;-81
2022/03/20 12:58:24;;;;;;;;;;;;;;;11.88;19.27;101546.94;4444215;32;34159;-79
2022/03/20 13:00:55;;;;;;;;;;;;;;;11.88;19.20;101548.66;4437062;32;33995;-80
2022/03/20 13:03:25;;;;;;;;;;;;;;;12.80;18.87;101534.44;4450327;32;34706;-84
2022/03/20 13:05:57;;;;;;;;;;;;;;;12.91;18.36;101552.28;4436970;32;32912;-83
2022/03/20 13:08:35;;;;;;;;;;;;;;;12.79;18.38;101541.38;4449748;32;33869;-80
2022/03/20 13:11:04;;;;;;;;;;;;;;;12.07;18.99;101527.84;4442160;32;33068;-80
2022/03/20 13:13:36;;;;;;;;;;;;;;;12.69;18.77;101533.09;4435127;32;33420;-82
2022/03/20 13:16:03;;;;;;;;;;;;;;;11.99;19.25;101515.34;4448123;32;34418;-81
2022/03/20 13:18:31;;;;;;;;;;;;;;;12.40;18.91;101523.25;4443541;32;34766;-85
2022/03/20 13:21:06;;;;;;;;;;;;;;;11.73;19.21;101520.22;4448877;32;33277;-80
2022/03/20 13:23:34;;;;;;;;;;;;;;;12.46;18.87;101519.13;4445012;32;34913;-81
2022/03/20 13:26:01;;;;;;;;;;;;;;;12.18;19.44;101508.41;4443242;32;34129;-81